sensor_id;sensor_type;location;lat;lon;timestamp;P1;durP1;ratioP1;P2;durP2;ratioP2
83840;SDS011;73868;52.172;10.668;2023-11-19T00:00:39;1.63;;;1.33;;
83840;SDS011;73868;52.172;10.668;2023-11-19T00:03:05;1.10;;;1.10;;
83840;SDS011;73868;52.172;10.668;2023-11-19T00:05:31;0.90;;;0.90;;
83840;SDS011;73868;52.172;10.668;2023-11-19T00:07:57;1.10;;;1.00;;
83840;SDS011;73868;52.172;10.668;2023-11-19T00:10:23;0.80;;;0.80;;
83840;SDS011;73868;52.172;10.668;2023-11-19T00:12:49;1.23;;;0.97;;
83840;SDS011;73868;52.172;10.668;2023-11-19T00:15:16;1.47;;;0.90;;
83840;SDS011;73868;52.172;10.668;2023-11-19T00:17:44;1.30;;;1.20;;
83840;SDS011;73868;52.172;10.668;2023-11-19T00:20:13;0.90;;;0.90;;
83840;SDS011;73868;52.172;10.668;2023-11-19T00:22:40;0.70;;;0.70;;
83840;SDS011;73868;52.172;10.668;2023-11-19T00:25:06;0.73;;;0.70;;
83840;SDS011;73868;52.172;10.668;2023-11-19T00:27:33;0.70;;;0.70;;
83840;SDS011;73868;52.172;10.668;2023-11-19T00:29:59;0.80;;;0.80;;
83840;SDS011;73868;52.172;10.668;2023-11-19T00:32:25;0.70;;;0.70;;
83840;SDS011;73868;52.172;10.668;2023-11-19T00:34:51;0.67;;;0.67;;
83840;SDS011;73868;52.172;10.668;2023-11-19T00:37:17;0.73;;;0.73;;
83840;SDS011;73868;52.172;10.668;2023-11-19T00:39:43;0.70;;;0.70;;
83840;SDS011;73868;52.172;10.668;2023-11-19T00:42:10;0.70;;;0.70;;
83840;SDS011;73868;52.172;10.668;2023-11-19T00:44:36;1.17;;;0.70;;
83840;SDS011;73868;52.172;10.668;2023-11-19T00:47:02;0.70;;;0.70;;
83840;SDS011;73868;52.172;10.668;2023-11-19T00:49:30;0.90;;;0.63;;
83840;SDS011;73868;52.172;10.668;2023-11-19T00:51:57;0.83;;;0.70;;
83840;SDS011;73868;52.172;10.668;2023-11-19T00:54:24;0.50;;;0.50;;
83840;SDS011;73868;52.172;10.668;2023-11-19T00:56:51;0.50;;;0.50;;
83840;SDS011;73868;52.172;10.668;2023-11-19T00:59:17;0.53;;;0.53;;
83840;SDS011;73868;52.172;10.668;2023-11-19T01:01:43;1.50;;;0.60;;
83840;SDS011;73868;52.172;10.668;2023-11-19T01:04:09;1.27;;;0.60;;
83840;SDS011;73868;52.172;10.668;2023-11-19T01:06:35;0.40;;;0.40;;
83840;SDS011;73868;52.172;10.668;2023-11-19T01:09:01;0.30;;;0.30;;
83840;SDS011;73868;52.172;10.668;2023-11-19T01:11:27;0.50;;;0.50;;
83840;SDS011;73868;52.172;10.668;2023-11-19T01:13:53;0.50;;;0.50;;
83840;SDS011;73868;52.172;10.668;2023-11-19T01:16:19;0.50;;;0.50;;
83840;SDS011;73868;52.172;10.668;2023-11-19T01:18:49;0.50;;;0.50;;
83840;SDS011;73868;52.172;10.668;2023-11-19T01:21:15;0.50;;;0.50;;
83840;SDS011;73868;52.172;10.668;2023-11-19T01:23:41;0.57;;;0.57;;
83840;SDS011;73868;52.172;10.668;2023-11-19T01:26:10;0.50;;;0.50;;
83840;SDS011;73868;52.172;10.668;2023-11-19T01:28:37;0.60;;;0.60;;
83840;SDS011;73868;52.172;10.668;2023-11-19T01:31:04;0.37;;;0.37;;
83840;SDS011;73868;52.172;10.668;2023-11-19T01:33:31;0.40;;;0.40;;
83840;SDS011;73868;52.172;10.668;2023-11-19T01:35:57;1.47;;;0.37;;
83840;SDS011;73868;52.172;10.668;2023-11-19T01:38:24;0.40;;;0.40;;
83840;SDS011;73868;52.172;10.668;2023-11-19T01:40:50;0.40;;;0.40;;
83840;SDS011;73868;52.172;10.668;2023-11-19T01:46:01;0.37;;;0.30;;
83840;SDS011;73868;52.172;10.668;2023-11-19T01:48:28;0.80;;;0.40;;
83840;SDS011;73868;52.172;10.668;2023-11-19T01:50:54;0.33;;;0.33;;
83840;SDS011;73868;52.172;10.668;2023-11-19T01:53:21;0.73;;;0.30;;
83840;SDS011;73868;52.172;10.668;2023-11-19T01:55:47;0.77;;;0.50;;
83840;SDS011;73868;52.172;10.668;2023-11-19T01:58:13;0.30;;;0.30;;
83840;SDS011;73868;52.172;10.668;2023-11-19T02:00:39;0.30;;;0.30;;
83840;SDS011;73868;52.172;10.668;2023-11-19T02:03:06;0.30;;;0.30;;
83840;SDS011;73868;52.172;10.668;2023-11-19T02:05:33;0.30;;;0.30;;
83840;SDS011;73868;52.172;10.668;2023-11-19T02:07:59;0.30;;;0.30;;
83840;SDS011;73868;52.172;10.668;2023-11-19T02:10:26;0.30;;;0.30;;
83840;SDS011;73868;52.172;10.668;2023-11-19T02:12:52;0.30;;;0.30;;
83840;SDS011;73868;52.172;10.668;2023-11-19T02:15:18;0.60;;;0.40;;
83840;SDS011;73868;52.172;10.668;2023-11-19T02:17:44;0.30;;;0.30;;
83840;SDS011;73868;52.172;10.668;2023-11-19T02:20:10;0.40;;;0.30;;
83840;SDS011;73868;52.172;10.668;2023-11-19T02:22:40;0.63;;;0.40;;
83840;SDS011;73868;52.172;10.668;2023-11-19T02:25:28;0.40;;;0.40;;
83840;SDS011;73868;52.172;10.668;2023-11-19T02:27:53;0.40;;;0.40;;
83840;SDS011;73868;52.172;10.668;2023-11-19T02:30:23;0.43;;;0.40;;
83840;SDS011;73868;52.172;10.668;2023-11-19T02:32:53;0.30;;;0.30;;
83840;SDS011;73868;52.172;10.668;2023-11-19T02:35:22;0.40;;;0.40;;
83840;SDS011;73868;52.172;10.668;2023-11-19T02:37:48;0.93;;;0.40;;
83840;SDS011;73868;52.172;10.668;2023-11-19T02:40:14;0.50;;;0.50;;
83840;SDS011;73868;52.172;10.668;2023-11-19T02:42:40;0.40;;;0.40;;
83840;SDS011;73868;52.172;10.668;2023-11-19T02:45:07;0.67;;;0.40;;
83840;SDS011;73868;52.172;10.668;2023-11-19T02:47:35;1.13;;;0.50;;
83840;SDS011;73868;52.172;10.668;2023-11-19T02:50:01;0.40;;;0.40;;
83840;SDS011;73868;52.172;10.668;2023-11-19T02:52:27;0.37;;;0.30;;
83840;SDS011;73868;52.172;10.668;2023-11-19T02:54:53;0.33;;;0.30;;
83840;SDS011;73868;52.172;10.668;2023-11-19T02:57:20;2.63;;;0.93;;
83840;SDS011;73868;52.172;10.668;2023-11-19T02:59:47;0.87;;;0.40;;
83840;SDS011;73868;52.172;10.668;2023-11-19T03:02:13;0.90;;;0.40;;
83840;SDS011;73868;52.172;10.668;2023-11-19T03:04:41;0.30;;;0.30;;
83840;SDS011;73868;52.172;10.668;2023-11-19T03:07:08;0.30;;;0.30;;
83840;SDS011;73868;52.172;10.668;2023-11-19T03:09:34;0.33;;;0.30;;
83840;SDS011;73868;52.172;10.668;2023-11-19T03:12:01;0.30;;;0.30;;
83840;SDS011;73868;52.172;10.668;2023-11-19T03:14:27;0.30;;;0.30;;
83840;SDS011;73868;52.172;10.668;2023-11-19T03:16:53;0.60;;;0.30;;
83840;SDS011;73868;52.172;10.668;2023-11-19T03:19:19;0.60;;;0.50;;
83840;SDS011;73868;52.172;10.668;2023-11-19T03:21:46;1.17;;;0.30;;
83840;SDS011;73868;52.172;10.668;2023-11-19T03:24:13;0.30;;;0.30;;
83840;SDS011;73868;52.172;10.668;2023-11-19T03:26:39;0.20;;;0.20;;
83840;SDS011;73868;52.172;10.668;2023-11-19T03:29:05;0.60;;;0.30;;
83840;SDS011;73868;52.172;10.668;2023-11-19T03:31:31;0.43;;;0.30;;
83840;SDS011;73868;52.172;10.668;2023-11-19T03:33:57;0.20;;;0.20;;
83840;SDS011;73868;52.172;10.668;2023-11-19T03:36:23;0.70;;;0.30;;
83840;SDS011;73868;52.172;10.668;2023-11-19T03:38:49;0.30;;;0.30;;
83840;SDS011;73868;52.172;10.668;2023-11-19T03:41:15;0.27;;;0.27;;
83840;SDS011;73868;52.172;10.668;2023-11-19T03:43:42;0.30;;;0.30;;
83840;SDS011;73868;52.172;10.668;2023-11-19T03:46:18;0.47;;;0.40;;
83840;SDS011;73868;52.172;10.668;2023-11-19T03:48:44;0.63;;;0.30;;
83840;SDS011;73868;52.172;10.668;2023-11-19T03:51:11;0.30;;;0.30;;
83840;SDS011;73868;52.172;10.668;2023-11-19T03:53:40;0.40;;;0.40;;
83840;SDS011;73868;52.172;10.668;2023-11-19T03:56:06;0.63;;;0.50;;
83840;SDS011;73868;52.172;10.668;2023-11-19T03:58:34;0.30;;;0.30;;
83840;SDS011;73868;52.172;10.668;2023-11-19T04:01:00;0.70;;;0.50;;
83840;SDS011;73868;52.172;10.668;2023-11-19T04:03:27;0.70;;;0.40;;
83840;SDS011;73868;52.172;10.668;2023-11-19T04:05:53;0.50;;;0.50;;
83840;SDS011;73868;52.172;10.668;2023-11-19T04:08:19;1.67;;;0.50;;
83840;SDS011;73868;52.172;10.668;2023-11-19T04:10:45;1.15;;;0.50;;
83840;SDS011;73868;52.172;10.668;2023-11-19T04:13:11;0.50;;;0.50;;
83840;SDS011;73868;52.172;10.668;2023-11-19T04:15:37;0.40;;;0.40;;
83840;SDS011;73868;52.172;10.668;2023-11-19T04:18:03;0.40;;;0.40;;
83840;SDS011;73868;52.172;10.668;2023-11-19T04:20:29;0.83;;;0.40;;
83840;SDS011;73868;52.172;10.668;2023-11-19T04:22:56;0.30;;;0.30;;
83840;SDS011;73868;52.172;10.668;2023-11-19T04:25:22;0.40;;;0.40;;
83840;SDS011;73868;52.172;10.668;2023-11-19T04:27:51;0.50;;;0.50;;
83840;SDS011;73868;52.172;10.668;2023-11-19T04:30:17;0.50;;;0.50;;
83840;SDS011;73868;52.172;10.668;2023-11-19T04:32:43;1.10;;;0.43;;
83840;SDS011;73868;52.172;10.668;2023-11-19T04:35:09;0.87;;;0.60;;
83840;SDS011;73868;52.172;10.668;2023-11-19T04:37:35;1.03;;;0.60;;
83840;SDS011;73868;52.172;10.668;2023-11-19T04:40:02;0.60;;;0.60;;
83840;SDS011;73868;52.172;10.668;2023-11-19T04:42:28;0.60;;;0.60;;
83840;SDS011;73868;52.172;10.668;2023-11-19T04:44:54;1.33;;;0.75;;
83840;SDS011;73868;52.172;10.668;2023-11-19T04:47:20;1.85;;;1.00;;
83840;SDS011;73868;52.172;10.668;2023-11-19T04:49:46;0.60;;;0.60;;
83840;SDS011;73868;52.172;10.668;2023-11-19T04:52:12;1.40;;;0.80;;
83840;SDS011;73868;52.172;10.668;2023-11-19T04:54:41;2.33;;;1.20;;
83840;SDS011;73868;52.172;10.668;2023-11-19T04:57:08;1.00;;;1.00;;
83840;SDS011;73868;52.172;10.668;2023-11-19T04:59:37;3.20;;;1.30;;
83840;SDS011;73868;52.172;10.668;2023-11-19T05:02:03;2.38;;;1.10;;
83840;SDS011;73868;52.172;10.668;2023-11-19T05:04:29;1.88;;;1.10;;
83840;SDS011;73868;52.172;10.668;2023-11-19T05:06:55;1.88;;;1.05;;
83840;SDS011;73868;52.172;10.668;2023-11-19T05:09:22;0.98;;;0.98;;
83840;SDS011;73868;52.172;10.668;2023-11-19T05:11:48;1.38;;;1.27;;
83840;SDS011;73868;52.172;10.668;2023-11-19T05:14:14;2.08;;;1.50;;
83840;SDS011;73868;52.172;10.668;2023-11-19T05:16:40;1.23;;;1.13;;
83840;SDS011;73868;52.172;10.668;2023-11-19T05:19:06;2.70;;;1.50;;
83840;SDS011;73868;52.172;10.668;2023-11-19T05:21:32;1.83;;;1.30;;
83840;SDS011;73868;52.172;10.668;2023-11-19T05:23:59;2.42;;;1.52;;
83840;SDS011;73868;52.172;10.668;2023-11-19T05:26:25;1.60;;;1.20;;
83840;SDS011;73868;52.172;10.668;2023-11-19T05:28:51;1.65;;;1.10;;
83840;SDS011;73868;52.172;10.668;2023-11-19T05:31:17;1.52;;;0.90;;
83840;SDS011;73868;52.172;10.668;2023-11-19T05:33:43;1.15;;;1.02;;
83840;SDS011;73868;52.172;10.668;2023-11-19T05:36:12;1.67;;;0.75;;
83840;SDS011;73868;52.172;10.668;2023-11-19T05:38:38;2.45;;;0.80;;
83840;SDS011;73868;52.172;10.668;2023-11-19T05:41:04;2.20;;;0.90;;
83840;SDS011;73868;52.172;10.668;2023-11-19T05:43:31;0.88;;;0.88;;
83840;SDS011;73868;52.172;10.668;2023-11-19T05:45:57;1.15;;;0.80;;
83840;SDS011;73868;52.172;10.668;2023-11-19T05:48:24;1.55;;;0.90;;
83840;SDS011;73868;52.172;10.668;2023-11-19T05:50:50;1.00;;;0.80;;
83840;SDS011;73868;52.172;10.668;2023-11-19T05:53:16;1.05;;;0.95;;
83840;SDS011;73868;52.172;10.668;2023-11-19T05:55:42;1.00;;;1.00;;
83840;SDS011;73868;52.172;10.668;2023-11-19T05:58:15;2.85;;;0.80;;
83840;SDS011;73868;52.172;10.668;2023-11-19T06:00:41;1.40;;;0.80;;
83840;SDS011;73868;52.172;10.668;2023-11-19T06:03:08;2.40;;;1.10;;
83840;SDS011;73868;52.172;10.668;2023-11-19T06:05:34;1.70;;;0.80;;
83840;SDS011;73868;52.172;10.668;2023-11-19T06:08:00;1.33;;;0.90;;
83840;SDS011;73868;52.172;10.668;2023-11-19T06:10:26;3.08;;;0.90;;
83840;SDS011;73868;52.172;10.668;2023-11-19T06:12:59;2.33;;;1.30;;
83840;SDS011;73868;52.172;10.668;2023-11-19T06:15:28;1.52;;;1.00;;
83840;SDS011;73868;52.172;10.668;2023-11-19T06:17:54;2.25;;;1.45;;
83840;SDS011;73868;52.172;10.668;2023-11-19T06:20:20;2.13;;;1.10;;
83840;SDS011;73868;52.172;10.668;2023-11-19T06:22:46;1.98;;;1.38;;
83840;SDS011;73868;52.172;10.668;2023-11-19T06:25:12;2.22;;;1.10;;
83840;SDS011;73868;52.172;10.668;2023-11-19T06:27:40;5.25;;;1.73;;
83840;SDS011;73868;52.172;10.668;2023-11-19T06:30:06;2.63;;;1.20;;
83840;SDS011;73868;52.172;10.668;2023-11-19T06:32:32;2.33;;;1.23;;
83840;SDS011;73868;52.172;10.668;2023-11-19T06:34:58;1.92;;;1.20;;
83840;SDS011;73868;52.172;10.668;2023-11-19T06:37:24;2.22;;;1.50;;
83840;SDS011;73868;52.172;10.668;2023-11-19T06:39:52;4.93;;;1.80;;
83840;SDS011;73868;52.172;10.668;2023-11-19T06:42:18;2.03;;;1.30;;
83840;SDS011;73868;52.172;10.668;2023-11-19T06:44:44;4.53;;;1.40;;
83840;SDS011;73868;52.172;10.668;2023-11-19T06:47:10;5.20;;;1.60;;
83840;SDS011;73868;52.172;10.668;2023-11-19T06:49:36;4.93;;;1.80;;
83840;SDS011;73868;52.172;10.668;2023-11-19T06:52:02;4.20;;;1.58;;
83840;SDS011;73868;52.172;10.668;2023-11-19T06:54:29;4.22;;;1.70;;
83840;SDS011;73868;52.172;10.668;2023-11-19T06:56:56;4.10;;;1.40;;
83840;SDS011;73868;52.172;10.668;2023-11-19T06:59:22;4.03;;;1.65;;
83840;SDS011;73868;52.172;10.668;2023-11-19T07:01:48;4.03;;;1.60;;
83840;SDS011;73868;52.172;10.668;2023-11-19T07:04:14;3.33;;;1.60;;
83840;SDS011;73868;52.172;10.668;2023-11-19T07:06:40;3.95;;;1.65;;
83840;SDS011;73868;52.172;10.668;2023-11-19T07:09:06;4.68;;;1.60;;
83840;SDS011;73868;52.172;10.668;2023-11-19T07:11:36;4.32;;;1.77;;
83840;SDS011;73868;52.172;10.668;2023-11-19T07:14:03;2.67;;;1.50;;
83840;SDS011;73868;52.172;10.668;2023-11-19T07:16:29;5.28;;;2.13;;
83840;SDS011;73868;52.172;10.668;2023-11-19T07:18:56;6.35;;;1.88;;
83840;SDS011;73868;52.172;10.668;2023-11-19T07:21:22;4.93;;;1.88;;
83840;SDS011;73868;52.172;10.668;2023-11-19T07:23:48;5.05;;;1.40;;
83840;SDS011;73868;52.172;10.668;2023-11-19T07:26:16;3.88;;;1.65;;
83840;SDS011;73868;52.172;10.668;2023-11-19T07:28:42;5.30;;;1.60;;
83840;SDS011;73868;52.172;10.668;2023-11-19T07:31:10;6.28;;;2.20;;
83840;SDS011;73868;52.172;10.668;2023-11-19T07:33:36;5.75;;;1.83;;
83840;SDS011;73868;52.172;10.668;2023-11-19T07:36:02;2.55;;;1.77;;
83840;SDS011;73868;52.172;10.668;2023-11-19T07:38:28;5.75;;;1.70;;
83840;SDS011;73868;52.172;10.668;2023-11-19T07:40:54;3.95;;;2.08;;
83840;SDS011;73868;52.172;10.668;2023-11-19T07:43:20;5.82;;;1.98;;
83840;SDS011;73868;52.172;10.668;2023-11-19T07:45:46;3.38;;;1.38;;
83840;SDS011;73868;52.172;10.668;2023-11-19T07:48:12;4.32;;;1.50;;
83840;SDS011;73868;52.172;10.668;2023-11-19T07:50:38;4.03;;;1.65;;
83840;SDS011;73868;52.172;10.668;2023-11-19T07:53:06;4.05;;;1.90;;
83840;SDS011;73868;52.172;10.668;2023-11-19T07:55:32;3.17;;;1.77;;
83840;SDS011;73868;52.172;10.668;2023-11-19T07:57:58;4.15;;;1.75;;
83840;SDS011;73868;52.172;10.668;2023-11-19T08:00:24;4.43;;;1.52;;
83840;SDS011;73868;52.172;10.668;2023-11-19T08:02:50;4.18;;;1.48;;
83840;SDS011;73868;52.172;10.668;2023-11-19T08:05:16;6.07;;;2.17;;
83840;SDS011;73868;52.172;10.668;2023-11-19T08:07:42;7.18;;;2.53;;
83840;SDS011;73868;52.172;10.668;2023-11-19T08:10:08;7.32;;;2.20;;
83840;SDS011;73868;52.172;10.668;2023-11-19T08:12:35;6.82;;;3.10;;
83840;SDS011;73868;52.172;10.668;2023-11-19T08:15:04;7.30;;;3.28;;
83840;SDS011;73868;52.172;10.668;2023-11-19T08:17:30;5.72;;;2.88;;
83840;SDS011;73868;52.172;10.668;2023-11-19T08:19:56;9.07;;;3.15;;
83840;SDS011;73868;52.172;10.668;2023-11-19T08:22:22;8.50;;;3.47;;
83840;SDS011;73868;52.172;10.668;2023-11-19T08:24:48;8.93;;;3.53;;
83840;SDS011;73868;52.172;10.668;2023-11-19T08:27:14;9.15;;;3.38;;
83840;SDS011;73868;52.172;10.668;2023-11-19T08:29:40;8.45;;;3.13;;
83840;SDS011;73868;52.172;10.668;2023-11-19T08:32:06;12.98;;;4.03;;
83840;SDS011;73868;52.172;10.668;2023-11-19T08:34:32;8.07;;;3.50;;
83840;SDS011;73868;52.172;10.668;2023-11-19T08:36:59;7.20;;;3.33;;
83840;SDS011;73868;52.172;10.668;2023-11-19T08:39:25;9.18;;;3.40;;
83840;SDS011;73868;52.172;10.668;2023-11-19T08:41:51;9.50;;;3.17;;
83840;SDS011;73868;52.172;10.668;2023-11-19T08:44:17;8.45;;;3.33;;
83840;SDS011;73868;52.172;10.668;2023-11-19T08:46:50;9.93;;;3.78;;
83840;SDS011;73868;52.172;10.668;2023-11-19T08:49:17;12.80;;;3.65;;
83840;SDS011;73868;52.172;10.668;2023-11-19T08:51:43;10.82;;;3.58;;
83840;SDS011;73868;52.172;10.668;2023-11-19T08:54:10;12.18;;;4.03;;
83840;SDS011;73868;52.172;10.668;2023-11-19T08:56:37;12.52;;;3.75;;
83840;SDS011;73868;52.172;10.668;2023-11-19T08:59:04;12.13;;;3.85;;
83840;SDS011;73868;52.172;10.668;2023-11-19T09:01:30;16.75;;;4.30;;
83840;SDS011;73868;52.172;10.668;2023-11-19T09:03:56;15.32;;;4.45;;
83840;SDS011;73868;52.172;10.668;2023-11-19T09:06:22;13.90;;;3.97;;
83840;SDS011;73868;52.172;10.668;2023-11-19T09:08:48;13.80;;;4.20;;
83840;SDS011;73868;52.172;10.668;2023-11-19T09:11:14;15.45;;;4.40;;
83840;SDS011;73868;52.172;10.668;2023-11-19T09:13:40;13.63;;;3.67;;
83840;SDS011;73868;52.172;10.668;2023-11-19T09:16:06;14.80;;;4.18;;
83840;SDS011;73868;52.172;10.668;2023-11-19T09:18:32;14.10;;;4.07;;
83840;SDS011;73868;52.172;10.668;2023-11-19T09:20:58;14.95;;;4.47;;
83840;SDS011;73868;52.172;10.668;2023-11-19T09:23:24;12.52;;;3.83;;
83840;SDS011;73868;52.172;10.668;2023-11-19T09:25:50;17.77;;;4.35;;
83840;SDS011;73868;52.172;10.668;2023-11-19T09:28:16;12.73;;;3.63;;
83840;SDS011;73868;52.172;10.668;2023-11-19T09:30:42;14.55;;;4.05;;
83840;SDS011;73868;52.172;10.668;2023-11-19T09:33:08;13.35;;;4.00;;
83840;SDS011;73868;52.172;10.668;2023-11-19T09:35:34;16.67;;;4.47;;
83840;SDS011;73868;52.172;10.668;2023-11-19T09:38:00;13.63;;;4.20;;
83840;SDS011;73868;52.172;10.668;2023-11-19T09:40:27;13.95;;;4.05;;
83840;SDS011;73868;52.172;10.668;2023-11-19T09:42:53;14.95;;;4.25;;
83840;SDS011;73868;52.172;10.668;2023-11-19T09:45:20;15.48;;;4.82;;
83840;SDS011;73868;52.172;10.668;2023-11-19T09:47:47;15.10;;;5.10;;
83840;SDS011;73868;52.172;10.668;2023-11-19T09:50:16;19.55;;;5.18;;
83840;SDS011;73868;52.172;10.668;2023-11-19T09:52:46;15.60;;;4.68;;
83840;SDS011;73868;52.172;10.668;2023-11-19T09:55:13;17.85;;;5.15;;
83840;SDS011;73868;52.172;10.668;2023-11-19T09:57:39;17.20;;;5.30;;
83840;SDS011;73868;52.172;10.668;2023-11-19T10:00:07;19.77;;;7.15;;
83840;SDS011;73868;52.172;10.668;2023-11-19T10:02:35;20.13;;;5.40;;
83840;SDS011;73868;52.172;10.668;2023-11-19T10:05:02;16.25;;;5.45;;
83840;SDS011;73868;52.172;10.668;2023-11-19T10:07:30;21.05;;;5.38;;
83840;SDS011;73868;52.172;10.668;2023-11-19T10:09:57;14.20;;;4.80;;
83840;SDS011;73868;52.172;10.668;2023-11-19T10:12:24;18.70;;;4.97;;
83840;SDS011;73868;52.172;10.668;2023-11-19T10:14:50;18.33;;;5.00;;
83840;SDS011;73868;52.172;10.668;2023-11-19T10:17:16;15.02;;;4.65;;
83840;SDS011;73868;52.172;10.668;2023-11-19T10:19:42;22.42;;;5.53;;
83840;SDS011;73868;52.172;10.668;2023-11-19T10:22:08;18.27;;;5.05;;
83840;SDS011;73868;52.172;10.668;2023-11-19T10:24:35;16.00;;;4.47;;
83840;SDS011;73868;52.172;10.668;2023-11-19T10:27:04;14.77;;;4.00;;
83840;SDS011;73868;52.172;10.668;2023-11-19T10:29:35;21.40;;;5.20;;
83840;SDS011;73868;52.172;10.668;2023-11-19T10:32:01;20.70;;;4.35;;
83840;SDS011;73868;52.172;10.668;2023-11-19T10:34:27;15.88;;;4.32;;
83840;SDS011;73868;52.172;10.668;2023-11-19T10:36:55;14.73;;;4.60;;
83840;SDS011;73868;52.172;10.668;2023-11-19T10:39:20;16.33;;;4.85;;
83840;SDS011;73868;52.172;10.668;2023-11-19T10:41:48;17.80;;;5.72;;
83840;SDS011;73868;52.172;10.668;2023-11-19T10:44:33;22.67;;;6.60;;
83840;SDS011;73868;52.172;10.668;2023-11-19T10:47:01;19.52;;;7.15;;
83840;SDS011;73868;52.172;10.668;2023-11-19T10:49:27;18.90;;;5.80;;
83840;SDS011;73868;52.172;10.668;2023-11-19T10:51:53;19.13;;;5.50;;
83840;SDS011;73868;52.172;10.668;2023-11-19T10:54:19;16.10;;;5.03;;
83840;SDS011;73868;52.172;10.668;2023-11-19T10:56:51;18.58;;;5.90;;
83840;SDS011;73868;52.172;10.668;2023-11-19T10:59:20;17.88;;;6.70;;
83840;SDS011;73868;52.172;10.668;2023-11-19T11:01:47;17.67;;;5.38;;
83840;SDS011;73868;52.172;10.668;2023-11-19T11:04:14;13.65;;;4.50;;
83840;SDS011;73868;52.172;10.668;2023-11-19T11:06:40;17.42;;;4.95;;
83840;SDS011;73868;52.172;10.668;2023-11-19T11:09:07;13.07;;;5.00;;
83840;SDS011;73868;52.172;10.668;2023-11-19T11:11:37;12.90;;;4.53;;
83840;SDS011;73868;52.172;10.668;2023-11-19T11:14:04;15.07;;;5.18;;
83840;SDS011;73868;52.172;10.668;2023-11-19T11:16:30;17.20;;;5.00;;
83840;SDS011;73868;52.172;10.668;2023-11-19T11:18:57;15.27;;;4.78;;
83840;SDS011;73868;52.172;10.668;2023-11-19T11:21:24;14.52;;;5.10;;
83840;SDS011;73868;52.172;10.668;2023-11-19T11:34:53;17.95;;;5.10;;
83840;SDS011;73868;52.172;10.668;2023-11-19T11:37:32;23.92;;;5.82;;
83840;SDS011;73868;52.172;10.668;2023-11-19T11:39:58;18.98;;;5.10;;
83840;SDS011;73868;52.172;10.668;2023-11-19T11:45:00;19.20;;;5.40;;
83840;SDS011;73868;52.172;10.668;2023-11-19T11:47:59;20.20;;;5.80;;
83840;SDS011;73868;52.172;10.668;2023-11-19T11:50:15;16.67;;;4.65;;
83840;SDS011;73868;52.172;10.668;2023-11-19T11:55:26;61.83;;;18.02;;
83840;SDS011;73868;52.172;10.668;2023-11-19T11:57:53;42.58;;;10.15;;
83840;SDS011;73868;52.172;10.668;2023-11-19T12:00:38;22.42;;;6.57;;
83840;SDS011;73868;52.172;10.668;2023-11-19T12:03:05;14.85;;;5.18;;
83840;SDS011;73868;52.172;10.668;2023-11-19T12:05:31;25.70;;;7.22;;
83840;SDS011;73868;52.172;10.668;2023-11-19T12:08:03;19.55;;;7.07;;
83840;SDS011;73868;52.172;10.668;2023-11-19T12:10:31;21.20;;;6.40;;
83840;SDS011;73868;52.172;10.668;2023-11-19T12:13:01;21.60;;;6.25;;
83840;SDS011;73868;52.172;10.668;2023-11-19T12:15:27;25.58;;;6.22;;
83840;SDS011;73868;52.172;10.668;2023-11-19T12:17:56;21.30;;;7.05;;
83840;SDS011;73868;52.172;10.668;2023-11-19T12:20:23;19.77;;;4.90;;
83840;SDS011;73868;52.172;10.668;2023-11-19T12:22:49;19.40;;;4.93;;
83840;SDS011;73868;52.172;10.668;2023-11-19T12:25:16;16.30;;;4.40;;
83840;SDS011;73868;52.172;10.668;2023-11-19T12:27:46;14.65;;;5.03;;
83840;SDS011;73868;52.172;10.668;2023-11-19T12:30:16;19.25;;;5.70;;
83840;SDS011;73868;52.172;10.668;2023-11-19T12:32:42;21.10;;;5.07;;
83840;SDS011;73868;52.172;10.668;2023-11-19T12:35:09;15.20;;;4.32;;
83840;SDS011;73868;52.172;10.668;2023-11-19T12:37:42;100.40;;;86.28;;
83840;SDS011;73868;52.172;10.668;2023-11-19T12:40:18;21.75;;;10.40;;
83840;SDS011;73868;52.172;10.668;2023-11-19T12:42:48;28.02;;;14.52;;
83840;SDS011;73868;52.172;10.668;2023-11-19T12:45:14;26.77;;;9.18;;
83840;SDS011;73868;52.172;10.668;2023-11-19T12:47:41;28.98;;;13.18;;
83840;SDS011;73868;52.172;10.668;2023-11-19T12:50:08;14.88;;;6.88;;
83840;SDS011;73868;52.172;10.668;2023-11-19T12:52:37;25.60;;;8.82;;
83840;SDS011;73868;52.172;10.668;2023-11-19T12:57:48;14.85;;;5.22;;
83840;SDS011;73868;52.172;10.668;2023-11-19T13:00:18;20.85;;;7.60;;
83840;SDS011;73868;52.172;10.668;2023-11-19T13:02:50;23.13;;;8.80;;
83840;SDS011;73868;52.172;10.668;2023-11-19T13:05:24;17.98;;;7.55;;
83840;SDS011;73868;52.172;10.668;2023-11-19T13:10:25;18.25;;;7.20;;
83840;SDS011;73868;52.172;10.668;2023-11-19T13:13:02;17.02;;;6.20;;
83840;SDS011;73868;52.172;10.668;2023-11-19T13:15:28;21.48;;;8.15;;
83840;SDS011;73868;52.172;10.668;2023-11-19T13:17:54;19.70;;;6.15;;
83840;SDS011;73868;52.172;10.668;2023-11-19T13:20:20;16.60;;;6.35;;
83840;SDS011;73868;52.172;10.668;2023-11-19T13:23:03;17.02;;;5.88;;
83840;SDS011;73868;52.172;10.668;2023-11-19T13:25:29;20.38;;;5.10;;
83840;SDS011;73868;52.172;10.668;2023-11-19T13:27:56;16.45;;;4.78;;
83840;SDS011;73868;52.172;10.668;2023-11-19T13:30:22;16.13;;;4.70;;
83840;SDS011;73868;52.172;10.668;2023-11-19T13:32:49;18.25;;;5.82;;
83840;SDS011;73868;52.172;10.668;2023-11-19T13:35:15;17.80;;;5.80;;
83840;SDS011;73868;52.172;10.668;2023-11-19T13:37:42;18.27;;;5.63;;
83840;SDS011;73868;52.172;10.668;2023-11-19T13:40:08;16.65;;;5.28;;
83840;SDS011;73868;52.172;10.668;2023-11-19T13:42:41;16.15;;;5.55;;
83840;SDS011;73868;52.172;10.668;2023-11-19T13:45:10;17.73;;;6.50;;
83840;SDS011;73868;52.172;10.668;2023-11-19T13:47:41;14.43;;;5.40;;
83840;SDS011;73868;52.172;10.668;2023-11-19T13:50:08;15.35;;;4.55;;
83840;SDS011;73868;52.172;10.668;2023-11-19T13:52:35;16.50;;;4.95;;
83840;SDS011;73868;52.172;10.668;2023-11-19T13:55:04;15.52;;;4.38;;
83840;SDS011;73868;52.172;10.668;2023-11-19T13:57:30;18.63;;;5.38;;
83840;SDS011;73868;52.172;10.668;2023-11-19T13:59:56;13.07;;;4.28;;
83840;SDS011;73868;52.172;10.668;2023-11-19T14:02:22;17.15;;;5.03;;
83840;SDS011;73868;52.172;10.668;2023-11-19T14:04:48;12.23;;;5.03;;
83840;SDS011;73868;52.172;10.668;2023-11-19T14:07:14;13.38;;;4.93;;
83840;SDS011;73868;52.172;10.668;2023-11-19T14:09:43;16.33;;;5.07;;
83840;SDS011;73868;52.172;10.668;2023-11-19T14:12:10;14.52;;;4.72;;
83840;SDS011;73868;52.172;10.668;2023-11-19T14:14:37;15.10;;;4.75;;
83840;SDS011;73868;52.172;10.668;2023-11-19T14:17:04;12.77;;;3.95;;
83840;SDS011;73868;52.172;10.668;2023-11-19T14:19:30;16.08;;;4.93;;
83840;SDS011;73868;52.172;10.668;2023-11-19T14:21:56;17.60;;;5.55;;
83840;SDS011;73868;52.172;10.668;2023-11-19T14:24:22;17.00;;;4.25;;
83840;SDS011;73868;52.172;10.668;2023-11-19T14:26:49;13.40;;;4.22;;
83840;SDS011;73868;52.172;10.668;2023-11-19T14:29:16;16.75;;;4.47;;
83840;SDS011;73868;52.172;10.668;2023-11-19T14:31:42;14.38;;;3.85;;
83840;SDS011;73868;52.172;10.668;2023-11-19T14:34:08;15.00;;;4.32;;
83840;SDS011;73868;52.172;10.668;2023-11-19T14:36:34;14.10;;;4.63;;
83840;SDS011;73868;52.172;10.668;2023-11-19T14:39:00;14.85;;;4.43;;
83840;SDS011;73868;52.172;10.668;2023-11-19T14:41:26;12.63;;;4.00;;
83840;SDS011;73868;52.172;10.668;2023-11-19T14:43:53;16.13;;;4.40;;
83840;SDS011;73868;52.172;10.668;2023-11-19T14:46:19;17.42;;;4.43;;
83840;SDS011;73868;52.172;10.668;2023-11-19T14:48:45;19.77;;;4.78;;
83840;SDS011;73868;52.172;10.668;2023-11-19T14:51:11;17.75;;;9.02;;